createdAt,value
2018-04-14T00:01:27.787Z,39.60
2018-04-14T00:03:55.290Z,41.77
2018-04-14T00:06:22.793Z,42.27
2018-04-14T00:08:50.918Z,41.03
2018-04-14T00:11:18.506Z,41.57
2018-04-14T00:13:46.018Z,42.90
2018-04-14T00:16:13.530Z,41.47
2018-04-14T00:18:41.234Z,41.00
2018-04-14T00:21:08.746Z,42.40
2018-04-14T00:23:36.265Z,40.80
2018-04-14T00:26:03.784Z,41.30
2018-04-14T00:28:31.309Z,43.40
2018-04-14T00:30:58.826Z,42.20
2018-04-14T00:33:26.334Z,45.13
2018-04-14T00:35:54.022Z,42.23
2018-04-14T00:38:22.056Z,42.17
2018-04-14T00:40:49.569Z,41.57
2018-04-14T00:43:17.081Z,41.10
2018-04-14T00:45:45.289Z,45.10
2018-04-14T00:48:13.632Z,44.07
2018-04-14T00:50:41.910Z,46.77
2018-04-14T00:53:21.602Z,48.73
2018-04-14T00:55:49.112Z,47.97
2018-04-14T00:58:16.809Z,48.63
2018-04-14T01:00:45.135Z,45.80
2018-04-14T01:03:12.658Z,45.37
2018-04-14T01:05:40.183Z,49.17
2018-04-14T01:08:07.747Z,53.63
2018-04-14T01:10:35.278Z,52.20
2018-04-14T01:13:02.779Z,49.00
2018-04-14T01:15:30.295Z,51.03
2018-04-14T01:17:58.395Z,49.70
2018-04-14T01:20:26.100Z,52.00
2018-04-14T01:22:53.595Z,54.93
2018-04-14T01:25:21.210Z,56.13
2018-04-14T01:27:48.757Z,51.40
2018-04-14T01:30:16.262Z,45.30
2018-04-14T01:32:43.945Z,44.80
2018-04-14T01:35:11.651Z,45.90
2018-04-14T01:37:39.206Z,50.40
2018-04-14T01:40:06.960Z,50.27
2018-04-14T01:42:34.463Z,56.07
2018-04-14T01:45:01.980Z,55.70
2018-04-14T01:47:29.623Z,54.10
2018-04-14T01:49:57.118Z,55.77
2018-04-14T01:52:24.626Z,58.30
2018-04-14T01:54:52.138Z,60.27
2018-04-14T01:57:19.650Z,58.50
2018-04-14T01:59:47.669Z,56.97
2018-04-14T02:02:15.374Z,60.63
2018-04-14T02:04:43.062Z,61.50
2018-04-14T02:07:10.570Z,58.90
2018-04-14T02:09:38.255Z,60.50
2018-04-14T02:12:06.034Z,57.67
2018-04-14T02:14:33.762Z,56.10
2018-04-14T02:17:01.457Z,54.90
2018-04-14T02:19:29.063Z,58.27
2018-04-14T02:21:56.789Z,57.30
2018-04-14T02:24:24.406Z,55.07
2018-04-14T02:26:52.131Z,50.37
2018-04-14T02:29:19.778Z,45.37
2018-04-14T02:31:47.298Z,49.37
2018-04-14T02:34:14.810Z,46.57
2018-04-14T02:36:43.323Z,45.90
2018-04-14T02:39:11.701Z,40.40
2018-04-14T02:41:39.340Z,37.90
2018-04-14T02:44:07.586Z,36.83
2018-04-14T02:46:35.111Z,37.23
2018-04-14T02:49:02.816Z,37.17
2018-04-14T02:51:30.326Z,35.37
2018-04-14T02:53:58.603Z,34.80
2018-04-14T02:56:26.215Z,31.90
2018-04-14T02:58:53.860Z,33.57
2018-04-14T03:01:21.618Z,32.13
2018-04-14T03:03:49.126Z,31.83
2018-04-14T03:06:16.641Z,34.70
2018-04-14T03:08:44.859Z,31.50
2018-04-14T03:11:12.478Z,33.13
2018-04-14T03:13:40.387Z,31.50
2018-04-14T03:16:07.905Z,35.00
2018-04-14T03:18:35.390Z,35.43
2018-04-14T03:21:03.511Z,36.20
2018-04-14T03:23:31.129Z,34.80
2018-04-14T03:25:58.633Z,33.60
2018-04-14T03:28:26.141Z,32.83
2018-04-14T03:30:53.834Z,33.03
2018-04-14T03:33:21.977Z,31.93
2018-04-14T03:35:50.293Z,32.63
2018-04-14T03:38:17.799Z,31.40
2018-04-14T03:40:45.314Z,27.90
2018-04-14T03:43:12.830Z,27.20
2018-04-14T03:45:41.929Z,24.50
2018-04-14T03:48:09.561Z,18.63
2018-04-14T03:50:37.215Z,19.90
2018-04-14T03:53:04.717Z,16.97
2018-04-14T03:55:32.449Z,16.90
2018-04-14T03:58:00.060Z,16.90
2018-04-14T04:00:28.368Z,15.40
2018-04-14T04:02:55.998Z,14.97
2018-04-14T04:05:23.502Z,15.53
2018-04-14T04:07:51.211Z,14.70
2018-04-14T04:10:18.709Z,15.03
2018-04-14T04:12:46.578Z,11.87
2018-04-14T04:15:14.119Z,11.47
2018-04-14T04:17:41.677Z,10.63
2018-04-14T04:20:19.275Z,10.47
2018-04-14T04:22:58.561Z,10.30
2018-04-14T04:25:32.770Z,9.20
2018-04-14T04:28:01.306Z,9.70
2018-04-14T04:30:28.810Z,9.80
2018-04-14T04:32:56.323Z,10.40
2018-04-14T04:35:23.960Z,10.37
2018-04-14T04:37:51.691Z,10.90
2018-04-14T04:40:19.202Z,11.80
2018-04-14T04:42:46.721Z,10.70
2018-04-14T04:45:14.382Z,9.83
2018-04-14T04:47:41.894Z,10.50
2018-04-14T04:50:09.385Z,9.13
2018-04-14T04:52:36.891Z,9.90
2018-04-14T04:55:04.556Z,8.33
2018-04-14T04:57:32.328Z,9.90
2018-04-14T04:59:59.819Z,10.10
2018-04-14T05:02:27.454Z,9.57
2018-04-14T05:04:55.006Z,10.20
2018-04-14T05:07:22.761Z,9.40
2018-04-14T05:09:50.254Z,10.40
2018-04-14T05:12:18.690Z,10.07
2018-04-14T05:14:46.332Z,10.00
2018-04-14T05:17:13.838Z,10.47
2018-04-14T05:19:41.351Z,10.60
2018-04-14T05:22:09.035Z,10.43
2018-04-14T05:24:36.534Z,9.50
2018-04-14T05:27:04.290Z,10.33
2018-04-14T05:29:31.783Z,9.87
2018-04-14T05:31:59.455Z,9.40
2018-04-14T05:34:26.954Z,9.00
2018-04-14T05:36:54.472Z,9.30
2018-04-14T05:39:22.106Z,9.07
2018-04-14T05:41:49.630Z,10.33
2018-04-14T05:44:17.373Z,9.20
2018-04-14T05:46:44.875Z,10.73
2018-04-14T05:49:12.814Z,8.40
2018-04-14T05:51:40.342Z,9.40
2018-04-14T05:54:07.838Z,8.17
2018-04-14T05:56:35.541Z,8.53
2018-04-14T05:59:03.041Z,7.83
2018-04-14T06:01:30.550Z,8.20
2018-04-14T06:03:58.058Z,8.50
2018-04-14T06:06:25.620Z,7.90
2018-04-14T06:08:53.161Z,9.13
2018-04-14T06:11:20.662Z,9.73
2018-04-14T06:13:48.410Z,8.90
2018-04-14T06:16:16.141Z,9.47
2018-04-14T06:18:43.646Z,8.57
2018-04-14T06:21:11.154Z,9.60
2018-04-14T06:23:38.804Z,10.27
2018-04-14T06:26:06.306Z,9.50
2018-04-14T06:28:34.034Z,9.50
2018-04-14T06:31:01.527Z,8.00
2018-04-14T06:33:29.554Z,8.43
2018-04-14T06:35:57.083Z,9.37
2018-04-14T06:38:24.600Z,8.40
2018-04-14T06:40:53.178Z,8.13
2018-04-14T06:43:20.689Z,7.77
2018-04-14T06:45:48.196Z,7.40
2018-04-14T06:48:15.722Z,7.70
2018-04-14T06:50:43.225Z,8.23
2018-04-14T06:53:10.779Z,7.53
2018-04-14T06:55:38.290Z,7.90
2018-04-14T06:58:05.952Z,7.83
2018-04-14T07:00:33.462Z,8.03
2018-04-14T07:03:00.990Z,5.83
2018-04-14T07:05:28.634Z,7.70
2018-04-14T07:07:56.137Z,7.87
2018-04-14T07:10:23.678Z,6.80
2018-04-14T07:12:51.182Z,6.40
2018-04-14T07:15:18.787Z,6.70
2018-04-14T07:17:46.299Z,6.90
2018-04-14T07:20:13.789Z,6.60
2018-04-14T07:22:41.487Z,6.73
2018-04-14T07:25:08.994Z,6.67
2018-04-14T07:27:36.666Z,7.70
2018-04-14T07:30:04.194Z,6.13
2018-04-14T07:32:31.874Z,8.63
2018-04-14T07:34:59.370Z,6.87
2018-04-14T07:37:26.891Z,6.67
2018-04-14T07:39:55.448Z,7.10
2018-04-14T07:42:22.969Z,7.60
2018-04-14T07:44:50.746Z,6.83
2018-04-14T07:47:18.243Z,7.50
2018-04-14T07:49:45.750Z,6.00
2018-04-14T07:52:13.364Z,6.73
2018-04-14T07:54:40.877Z,6.70
2018-04-14T07:57:08.370Z,6.60
2018-04-14T07:59:35.883Z,6.27
2018-04-14T08:02:03.526Z,5.60
2018-04-14T08:04:31.032Z,5.50
2018-04-14T08:06:59.240Z,5.80
2018-04-14T08:09:26.814Z,5.97
2018-04-14T08:11:54.306Z,5.07
2018-04-14T08:14:21.817Z,6.00
2018-04-14T08:16:49.323Z,5.17
2018-04-14T08:19:16.963Z,6.73
2018-04-14T08:21:44.470Z,5.60
2018-04-14T08:24:12.025Z,6.40
2018-04-14T08:26:39.827Z,8.00
2018-04-14T08:29:07.366Z,6.60
2018-04-14T08:31:35.078Z,5.10
2018-04-14T08:34:03.355Z,6.80
2018-04-14T08:36:30.967Z,5.50
2018-04-14T08:38:58.474Z,6.17
2018-04-14T08:41:25.996Z,6.50
2018-04-14T08:43:53.602Z,5.80
2018-04-14T08:46:21.136Z,6.40
2018-04-14T08:48:48.895Z,6.80
2018-04-14T08:51:16.393Z,5.00
2018-04-14T08:53:43.921Z,5.47
2018-04-14T08:56:11.656Z,6.70
2018-04-14T08:58:39.339Z,6.40
2018-04-14T09:01:06.842Z,7.27
2018-04-14T09:03:34.651Z,7.10
2018-04-14T09:06:02.163Z,8.13
2018-04-14T09:08:30.430Z,6.10
2018-04-14T09:10:58.148Z,6.50
2018-04-14T09:13:25.772Z,8.47
2018-04-14T09:15:54.289Z,8.13
2018-04-14T09:18:21.804Z,8.33
2018-04-14T09:20:49.310Z,8.47
2018-04-14T09:23:17.003Z,8.20
2018-04-14T09:25:44.728Z,10.00
2018-04-14T09:28:12.260Z,9.47
2018-04-14T09:30:39.786Z,7.60
2018-04-14T09:33:08.053Z,7.00
2018-04-14T09:35:35.565Z,6.00
2018-04-14T09:38:03.243Z,7.30
2018-04-14T09:40:31.107Z,5.73
2018-04-14T09:42:58.812Z,7.03
2018-04-14T09:45:26.501Z,6.93
2018-04-14T09:47:53.999Z,7.70
2018-04-14T09:50:21.504Z,7.27
2018-04-14T09:52:49.005Z,8.27
2018-04-14T09:55:16.695Z,8.53
2018-04-14T09:57:44.201Z,9.00
2018-04-14T10:00:26.581Z,8.27
2018-04-14T10:03:03.969Z,7.37
2018-04-14T10:05:31.659Z,8.00
2018-04-14T10:07:59.166Z,8.53
2018-04-14T10:10:26.733Z,8.53
2018-04-14T10:12:54.211Z,8.20
2018-04-14T10:15:21.744Z,7.27
2018-04-14T10:17:49.246Z,5.40
2018-04-14T10:20:16.753Z,5.80
2018-04-14T10:22:44.257Z,6.10
2018-04-14T10:25:11.939Z,5.87
2018-04-14T10:27:39.439Z,5.20
2018-04-14T10:30:06.946Z,4.63
2018-04-14T10:32:34.442Z,6.70
2018-04-14T10:35:01.952Z,5.43
2018-04-14T10:37:29.439Z,5.07
2018-04-14T10:39:56.945Z,6.27
2018-04-14T10:42:24.455Z,6.73
2018-04-14T10:44:52.013Z,5.53
2018-04-14T10:47:19.650Z,6.53
2018-04-14T10:49:47.158Z,6.27
2018-04-14T10:52:14.655Z,6.10
2018-04-14T10:54:42.175Z,7.20
2018-04-14T10:57:10.442Z,7.00
2018-04-14T10:59:37.957Z,6.77
2018-04-14T11:02:05.465Z,6.27
2018-04-14T11:04:33.741Z,7.00
2018-04-14T11:07:01.466Z,6.07
2018-04-14T11:09:29.186Z,6.20
2018-04-14T11:11:56.990Z,6.40
2018-04-14T11:14:24.633Z,5.40
2018-04-14T11:16:52.211Z,6.47
2018-04-14T11:19:19.723Z,4.93
2018-04-14T11:21:47.266Z,5.93
2018-04-14T11:24:15.526Z,4.50
2018-04-14T11:26:43.267Z,4.80
2018-04-14T11:29:10.777Z,5.67
2018-04-14T11:31:38.319Z,6.50
2018-04-14T11:34:08.103Z,6.60
2018-04-14T11:36:36.492Z,6.03
2018-04-14T11:39:03.989Z,6.87
2018-04-14T11:41:31.489Z,7.63
2018-04-14T11:43:59.151Z,6.33
2018-04-14T11:46:26.665Z,6.07
2018-04-14T11:48:54.156Z,6.77
2018-04-14T11:51:21.704Z,6.90
2018-04-14T11:53:49.191Z,6.93
2018-04-14T11:56:16.751Z,8.03
2018-04-14T11:58:44.237Z,6.63
2018-04-14T12:01:11.955Z,6.80
2018-04-14T12:03:39.744Z,6.17
2018-04-14T12:06:07.246Z,6.50
2018-04-14T12:08:34.946Z,5.23
2018-04-14T12:11:02.499Z,5.30
2018-04-14T12:13:30.118Z,4.27
2018-04-14T12:15:57.629Z,5.70
2018-04-14T12:18:25.126Z,5.90
2018-04-14T12:20:52.645Z,6.47
2018-04-14T12:23:20.163Z,5.07
2018-04-14T12:25:47.664Z,5.10
2018-04-14T12:28:15.173Z,6.23
2018-04-14T12:30:42.673Z,5.93
2018-04-14T12:33:10.171Z,5.30
2018-04-14T12:35:37.682Z,5.90
2018-04-14T12:38:05.211Z,4.40
2018-04-14T12:40:32.708Z,6.07
2018-04-14T12:43:00.294Z,6.43
2018-04-14T12:45:28.035Z,5.00
2018-04-14T12:47:55.544Z,6.90
2018-04-14T12:50:23.060Z,6.70
2018-04-14T12:52:50.566Z,8.00
2018-04-14T12:55:18.060Z,5.90
2018-04-14T12:57:45.621Z,7.07
2018-04-14T13:00:14.107Z,7.50
2018-04-14T13:02:41.621Z,8.90
2018-04-14T13:05:10.523Z,9.63
2018-04-14T13:07:38.175Z,9.57
2018-04-14T13:10:05.684Z,9.10
2018-04-14T13:12:33.722Z,10.57
2018-04-14T13:15:01.229Z,9.70
2018-04-14T13:17:28.734Z,9.83
2018-04-14T13:19:56.239Z,10.53
2018-04-14T13:22:24.510Z,11.17
2018-04-14T13:24:52.058Z,10.60
2018-04-14T13:27:19.695Z,11.93
2018-04-14T13:29:47.198Z,11.07
2018-04-14T13:32:14.992Z,11.60
2018-04-14T13:34:43.271Z,13.77
2018-04-14T13:37:10.831Z,13.40
2018-04-14T13:39:38.533Z,11.03
2018-04-14T13:42:06.046Z,11.20
2018-04-14T13:44:33.564Z,11.23
2018-04-14T13:47:01.844Z,11.60
2018-04-14T13:49:29.350Z,12.27
2018-04-14T13:51:57.035Z,10.90
2018-04-14T13:54:24.542Z,12.00
2018-04-14T13:56:52.088Z,11.30
2018-04-14T13:59:20.348Z,13.10
2018-04-14T14:01:47.874Z,13.53
2018-04-14T14:04:15.531Z,12.93
2018-04-14T14:06:43.214Z,14.63
2018-04-14T14:09:10.802Z,14.63
2018-04-14T14:11:38.326Z,16.60
2018-04-14T14:14:05.836Z,19.40
2018-04-14T14:16:33.427Z,18.10
2018-04-14T14:19:01.063Z,20.60
2018-04-14T14:21:28.580Z,21.70
2018-04-14T14:23:56.133Z,22.53
2018-04-14T14:26:23.614Z,23.50
2018-04-14T14:28:51.286Z,23.07
2018-04-14T14:31:18.810Z,23.80
2018-04-14T14:33:46.317Z,24.63
2018-04-14T14:36:14.002Z,24.97
2018-04-14T14:38:41.798Z,24.73
2018-04-14T14:41:09.319Z,24.27
2018-04-14T14:43:36.962Z,24.63
2018-04-14T14:46:04.750Z,25.23
2018-04-14T14:48:32.297Z,23.03
2018-04-14T14:51:00.658Z,22.00
2018-04-14T14:53:28.175Z,21.37
2018-04-14T14:55:55.802Z,23.60
2018-04-14T14:58:23.314Z,23.37
2018-04-14T15:00:51.021Z,23.13
2018-04-14T15:03:18.542Z,23.93
2018-04-14T15:05:46.050Z,27.90
2018-04-14T15:08:13.685Z,25.10
2018-04-14T15:10:41.178Z,26.93
2018-04-14T15:13:08.687Z,26.70
2018-04-14T15:15:36.204Z,30.10
2018-04-14T15:18:04.014Z,27.63
2018-04-14T15:20:31.564Z,23.57
2018-04-14T15:22:59.091Z,25.33
2018-04-14T15:25:26.837Z,24.47
2018-04-14T15:27:54.451Z,26.57
2018-04-14T15:30:22.664Z,24.17
2018-04-14T15:32:50.406Z,25.53
2018-04-14T15:35:18.354Z,33.20
2018-04-14T15:37:45.939Z,26.47
2018-04-14T15:40:13.738Z,27.87
2018-04-14T15:42:41.452Z,24.37
2018-04-14T15:45:08.958Z,27.70
2018-04-14T15:47:36.468Z,28.20
2018-04-14T15:50:03.978Z,27.83
2018-04-14T15:52:32.568Z,27.10
2018-04-14T15:55:00.072Z,28.50
2018-04-14T15:57:27.733Z,29.30
2018-04-14T15:59:55.505Z,30.67
2018-04-14T16:02:23.266Z,31.77
2018-04-14T16:04:50.799Z,31.27
2018-04-14T16:07:18.519Z,32.63
2018-04-14T16:09:46.942Z,31.27
2018-04-14T16:12:14.514Z,31.10
2018-04-14T16:14:42.023Z,32.00
2018-04-14T16:17:09.588Z,34.97
2018-04-14T16:19:37.069Z,33.60
2018-04-14T16:22:04.595Z,35.37
2018-04-14T16:24:33.252Z,35.47
2018-04-14T16:27:00.875Z,40.93
2018-04-14T16:29:28.678Z,38.20
2018-04-14T16:31:56.195Z,38.50
2018-04-14T16:34:23.706Z,35.07
2018-04-14T16:36:51.242Z,35.43
2018-04-14T16:39:18.763Z,32.80
2018-04-14T16:41:46.283Z,32.67
2018-04-14T16:44:14.031Z,33.60
2018-04-14T16:46:41.544Z,33.93
2018-04-14T16:49:09.082Z,33.30
2018-04-14T16:51:37.351Z,35.50
2018-04-14T16:54:05.074Z,31.27
2018-04-14T16:56:32.582Z,36.50
2018-04-14T16:59:00.243Z,34.13
2018-04-14T17:01:27.746Z,36.83
2018-04-14T17:03:55.514Z,37.40
2018-04-14T17:06:23.015Z,36.80
2018-04-14T17:08:50.822Z,38.00
2018-04-14T17:11:18.635Z,40.83
2018-04-14T17:13:46.950Z,39.17
2018-04-14T17:16:14.459Z,39.30
2018-04-14T17:18:41.958Z,39.63
2018-04-14T17:21:09.585Z,38.77
2018-04-14T17:23:37.100Z,39.90
2018-04-14T17:26:04.871Z,38.30
2018-04-14T17:28:32.363Z,41.70
2018-04-14T17:30:59.871Z,40.30
2018-04-14T17:33:27.376Z,42.27
2018-04-14T17:35:54.889Z,44.87
2018-04-14T17:38:22.402Z,43.37
2018-04-14T17:40:51.284Z,43.40
2018-04-14T17:43:18.816Z,42.50
2018-04-14T17:45:46.313Z,42.43
2018-04-14T17:48:14.042Z,44.70
2018-04-14T17:50:41.554Z,44.83
2018-04-14T17:53:09.073Z,42.67
2018-04-14T17:55:36.596Z,44.23
2018-04-14T17:58:04.113Z,43.30
2018-04-14T18:00:31.674Z,43.13
2018-04-14T18:02:59.366Z,45.33
2018-04-14T18:05:26.886Z,43.00
2018-04-14T18:07:54.391Z,43.30
2018-04-14T18:10:21.900Z,43.30
2018-04-14T18:12:50.238Z,42.50
2018-04-14T18:15:17.750Z,45.17
2018-04-14T18:17:45.354Z,42.80
2018-04-14T18:20:12.870Z,44.27
2018-04-14T18:22:40.551Z,42.10
2018-04-14T18:25:08.055Z,43.97
2018-04-14T18:27:35.564Z,46.70
2018-04-14T18:30:03.090Z,45.43
2018-04-14T18:32:31.363Z,43.87
2018-04-14T18:34:58.942Z,45.43
2018-04-14T18:37:26.410Z,46.23
2018-04-14T18:39:53.994Z,46.30
2018-04-14T18:42:21.499Z,47.13
2018-04-14T18:44:49.015Z,46.40
2018-04-14T18:47:16.527Z,46.43
2018-04-14T18:49:44.047Z,46.53
2018-04-14T18:52:11.558Z,46.03
2018-04-14T18:54:39.073Z,44.70
2018-04-14T18:57:06.575Z,45.97
2018-04-14T18:59:34.228Z,44.63
2018-04-14T19:02:01.767Z,49.20
2018-04-14T19:04:29.452Z,45.07
2018-04-14T19:06:57.513Z,48.40
2018-04-14T19:09:25.357Z,46.87
2018-04-14T19:11:52.843Z,46.10
2018-04-14T19:14:20.348Z,44.50
2018-04-14T19:16:48.001Z,46.07
2018-04-14T19:19:15.534Z,47.53
2018-04-14T19:21:43.979Z,46.27
2018-04-14T19:24:12.446Z,44.90
2018-04-14T19:26:40.624Z,45.53
2018-04-14T19:29:08.138Z,46.90
2018-04-14T19:31:35.779Z,47.60
2018-04-14T19:34:03.293Z,46.87
2018-04-14T19:36:30.868Z,46.70
2018-04-14T19:38:59.156Z,47.80
2018-04-14T19:41:26.847Z,50.00
2018-04-14T19:43:54.623Z,48.73
2018-04-14T19:46:22.128Z,48.13
2018-04-14T19:48:49.654Z,63.13
2018-04-14T19:51:17.160Z,57.07
2018-04-14T19:53:44.754Z,65.53
2018-04-14T19:56:12.262Z,52.40
2018-04-14T19:58:39.974Z,51.37
2018-04-14T20:01:07.738Z,48.40
2018-04-14T20:03:35.264Z,52.10
2018-04-14T20:06:02.957Z,47.77
2018-04-14T20:08:30.479Z,48.93
2018-04-14T20:10:57.981Z,51.30
2018-04-14T20:13:26.259Z,49.47
2018-04-14T20:15:53.782Z,55.60
2018-04-14T20:18:21.282Z,56.90
2018-04-14T20:20:48.809Z,51.87
2018-04-14T20:23:16.329Z,53.27
2018-04-14T20:25:43.856Z,52.27
2018-04-14T20:28:11.372Z,53.53
2018-04-14T20:30:38.957Z,53.47
2018-04-14T20:33:06.473Z,71.40
2018-04-14T20:35:33.987Z,52.30
2018-04-14T20:38:01.607Z,53.40
2018-04-14T20:40:29.121Z,50.33
2018-04-14T20:42:56.674Z,48.87
2018-04-14T20:45:24.386Z,51.63
2018-04-14T20:47:51.898Z,47.70
2018-04-14T20:50:19.605Z,53.80
2018-04-14T20:52:47.451Z,50.13
2018-04-14T20:55:14.909Z,50.20
2018-04-14T20:57:42.602Z,52.73
2018-04-14T21:00:10.127Z,51.90
2018-04-14T21:02:37.642Z,50.63
2018-04-14T21:05:05.150Z,52.60
2018-04-14T21:07:32.661Z,53.20
2018-04-14T21:10:00.200Z,51.63
2018-04-14T21:12:27.840Z,49.73
2018-04-14T21:14:55.366Z,51.00
2018-04-14T21:17:23.058Z,48.50
2018-04-14T21:19:50.653Z,47.83
2018-04-14T21:22:18.178Z,51.07
2018-04-14T21:24:45.720Z,53.07
2018-04-14T21:27:13.906Z,47.67
2018-04-14T21:29:41.716Z,48.90
2018-04-14T21:32:10.958Z,51.17
2018-04-14T21:34:38.482Z,50.00
2018-04-14T21:37:06.003Z,50.67
2018-04-14T21:39:33.851Z,53.27
2018-04-14T21:42:01.349Z,51.23
2018-04-14T21:44:28.870Z,49.73
2018-04-14T21:46:56.389Z,49.50
2018-04-14T21:49:24.026Z,54.23
2018-04-14T21:51:51.556Z,48.50
2018-04-14T21:54:19.071Z,52.83
2018-04-14T21:56:46.794Z,54.23
2018-04-14T21:59:14.573Z,51.53
2018-04-14T22:01:42.317Z,52.83
2018-04-14T22:04:10.077Z,54.53
2018-04-14T22:06:37.721Z,56.73
2018-04-14T22:09:06.226Z,51.93
2018-04-14T22:11:34.568Z,54.47
2018-04-14T22:14:02.257Z,52.17
2018-04-14T22:16:29.811Z,50.53
2018-04-14T22:18:57.355Z,53.73
2018-04-14T22:21:24.861Z,54.13
2018-04-14T22:23:52.388Z,54.77
2018-04-14T22:26:19.954Z,51.83
2018-04-14T22:28:47.476Z,53.70
2018-04-14T22:31:14.978Z,52.03
2018-04-14T22:33:42.629Z,52.50
2018-04-14T22:36:10.394Z,52.77
2018-04-14T22:38:37.914Z,52.70
2018-04-14T22:41:05.619Z,53.60
2018-04-14T22:43:33.131Z,54.07
2018-04-14T22:46:00.762Z,54.27
2018-04-14T22:48:28.282Z,57.50
2018-04-14T22:50:56.059Z,57.87
2018-04-14T22:53:23.564Z,54.77
2018-04-14T22:55:51.250Z,55.70
2018-04-14T22:58:18.758Z,60.37
2018-04-14T23:00:46.518Z,55.60
2018-04-14T23:03:14.030Z,57.07
2018-04-14T23:05:41.555Z,54.43
2018-04-14T23:08:09.813Z,55.73
2018-04-14T23:10:37.350Z,57.40
2018-04-14T23:13:05.014Z,59.50
2018-04-14T23:15:32.533Z,56.23
2018-04-14T23:18:00.045Z,57.40
2018-04-14T23:20:27.570Z,57.77
2018-04-14T23:22:55.105Z,56.37
2018-04-14T23:25:22.893Z,58.77
2018-04-14T23:27:50.419Z,56.13
2018-04-14T23:30:17.943Z,53.60
2018-04-14T23:32:45.455Z,56.70
2018-04-14T23:35:12.978Z,55.37
2018-04-14T23:37:40.490Z,57.67
2018-04-14T23:40:08.023Z,57.57
2018-04-14T23:42:35.694Z,53.53
2018-04-14T23:45:03.220Z,53.73
2018-04-14T23:47:30.911Z,57.93
2018-04-14T23:49:58.424Z,57.30
2018-04-14T23:52:26.173Z,53.00
2018-04-14T23:54:53.702Z,58.30
2018-04-14T23:57:21.367Z,58.20
2018-04-14T23:59:49.150Z,56.23
